Time;durP1;ratioP1;P1;durP2;ratioP2;P2;SDS_P1;SDS_P2;PMS_P1;PMS_P2;Temp;Humidity;BMP_temperature;BMP_pressure;BME280_temperature;BME280_humidity;BME280_pressure;Samples;Min_cycle;Max_cycle;Signal;HPM_P1;HPM_P2
2021/03/23 00:00:48;;;;;;;1.33;0.83;;;5.60;99.90;;;;;;5008954;28;20182;-85
2021/03/23 00:03:21;;;;;;;0.53;0.53;;;5.60;99.90;;;;;;5008547;28;20290;-84
2021/03/23 00:05:46;;;;;;;1.93;1.00;;;5.50;99.90;;;;;;5026947;28;20202;-85
2021/03/23 00:08:33;;;;;;;1.57;0.63;;;5.40;99.90;;;;;;5008744;28;20190;-84
2021/03/23 00:11:04;;;;;;;0.90;0.70;;;5.40;99.90;;;;;;5008668;28;20206;-85
2021/03/23 00:13:30;;;;;;;1.03;0.90;;;5.40;99.90;;;;;;5009130;28;20206;-84
2021/03/23 00:15:55;;;;;;;1.27;0.93;;;5.50;99.90;;;;;;5008457;28;20249;-85
2021/03/23 00:18:21;;;;;;;0.97;0.60;;;5.50;99.90;;;;;;5026540;28;20179;-84
2021/03/23 00:20:47;;;;;;;0.53;0.50;;;5.50;99.90;;;;;;5009033;28;20229;-84
2021/03/23 00:23:14;;;;;;;1.47;0.50;;;5.40;99.90;;;;;;5026320;28;20174;-84
2021/03/23 00:25:40;;;;;;;2.60;1.37;;;5.40;99.90;;;;;;5009143;28;20560;-85
2021/03/23 00:28:07;;;;;;;1.43;0.73;;;5.50;99.90;;;;;;5008790;28;20197;-84
2021/03/23 00:30:33;;;;;;;0.97;0.50;;;5.40;99.90;;;;;;5008905;28;20677;-84
2021/03/23 00:32:59;;;;;;;0.93;0.60;;;5.40;99.90;;;;;;5025832;28;20286;-84
2021/03/23 00:35:24;;;;;;;0.40;0.40;;;5.40;99.90;;;;;;5008386;28;20226;-84
2021/03/23 00:37:53;;;;;;;3.90;1.00;;;5.50;99.90;;;;;;5007949;28;20214;-84
2021/03/23 00:40:22;;;;;;;0.80;0.57;;;5.40;99.90;;;;;;5024730;28;20171;-84
2021/03/23 00:42:48;;;;;;;0.57;0.47;;;5.40;99.90;;;;;;5025466;28;20202;-84
2021/03/23 00:45:15;;;;;;;0.73;0.73;;;5.50;99.90;;;;;;5007983;28;20213;-84
2021/03/23 00:47:40;;;;;;;1.37;0.50;;;5.40;99.90;;;;;;5007959;28;20206;-84
2021/03/23 00:50:07;;;;;;;0.67;0.50;;;5.40;99.90;;;;;;5008796;28;20187;-84
2021/03/23 00:52:32;;;;;;;0.60;0.53;;;5.40;99.90;;;;;;5008308;28;20288;-84
2021/03/23 00:54:58;;;;;;;0.97;0.73;;;5.40;99.90;;;;;;5008557;28;20235;-84
2021/03/23 00:57:25;;;;;;;0.80;0.80;;;5.40;99.90;;;;;;5025823;28;20258;-86
2021/03/23 00:59:51;;;;;;;1.40;1.20;;;5.30;99.90;;;;;;5008756;28;20183;-84
2021/03/23 01:02:17;;;;;;;0.87;0.87;;;5.40;99.90;;;;;;5008060;28;20190;-84
2021/03/23 01:04:42;;;;;;;0.53;0.53;;;5.30;99.90;;;;;;5008304;28;20296;-84
2021/03/23 01:07:08;;;;;;;0.90;0.50;;;5.40;99.90;;;;;;5008226;28;20183;-84
2021/03/23 01:09:34;;;;;;;1.83;0.50;;;5.30;99.90;;;;;;5008296;28;20269;-85
2021/03/23 01:11:59;;;;;;;1.53;0.70;;;5.40;99.90;;;;;;5007814;28;20206;-84
2021/03/23 01:14:25;;;;;;;0.50;0.50;;;5.40;99.90;;;;;;5008104;28;20229;-84
2021/03/23 01:16:51;;;;;;;0.80;0.70;;;5.30;99.90;;;;;;5007818;28;20175;-84
2021/03/23 01:19:17;;;;;;;4.00;1.43;;;5.30;99.90;;;;;;5007728;28;20179;-84
2021/03/23 01:21:42;;;;;;;1.10;0.60;;;5.30;99.90;;;;;;5008309;28;20175;-85
2021/03/23 01:24:08;;;;;;;1.20;0.87;;;5.30;99.90;;;;;;5025709;28;20183;-84
2021/03/23 01:26:34;;;;;;;0.97;0.97;;;5.40;99.90;;;;;;5009120;28;20182;-84
2021/03/23 01:28:59;;;;;;;0.70;0.60;;;5.40;99.90;;;;;;5012120;28;20252;-84
2021/03/23 01:31:26;;;;;;;1.40;0.90;;;5.30;99.90;;;;;;5012093;28;20197;-84
2021/03/23 01:33:51;;;;;;;1.37;1.13;;;5.30;99.90;;;;;;5011575;28;20211;-84
2021/03/23 01:36:17;;;;;;;1.93;1.00;;;5.40;99.90;;;;;;5012192;28;20265;-85
2021/03/23 01:38:43;;;;;;;1.53;0.90;;;5.30;99.90;;;;;;5012177;28;20741;-85
2021/03/23 01:41:09;;;;;;;3.40;1.30;;;5.30;99.90;;;;;;5029609;28;20201;-84
2021/03/23 01:43:36;;;;;;;1.43;1.10;;;5.20;99.90;;;;;;5011777;28;20547;-84
2021/03/23 01:46:33;;;;;;;2.27;1.13;;;5.30;99.90;;;;;;5029260;28;20203;-84
2021/03/23 01:49:00;;;;;;;2.77;1.40;;;5.30;99.90;;;;;;5021519;28;20191;-84
2021/03/23 01:51:26;;;;;;;1.47;1.27;;;5.20;99.90;;;;;;5027813;28;20195;-84
2021/03/23 01:53:59;;;;;;;3.80;2.53;;;5.30;99.90;;;;;;5010806;28;20213;-84
2021/03/23 01:56:25;;;;;;;1.87;1.30;;;5.30;99.90;;;;;;5010923;28;20187;-85
2021/03/23 01:58:52;;;;;;;1.93;1.50;;;5.30;99.90;;;;;;5011153;28;20698;-84
2021/03/23 02:01:19;;;;;;;2.10;1.53;;;5.30;99.90;;;;;;5011349;28;20995;-85
2021/03/23 02:03:47;;;;;;;1.73;1.30;;;5.20;99.90;;;;;;5028747;28;20241;-84
2021/03/23 02:06:32;;;;;;;4.27;2.17;;;5.30;99.90;;;;;;5028324;28;20233;-84
2021/03/23 02:09:00;;;;;;;1.40;1.20;;;5.30;99.90;;;;;;5028955;28;20608;-84
2021/03/23 02:11:27;;;;;;;2.77;1.70;;;5.30;99.90;;;;;;5010553;28;20190;-84
2021/03/23 02:13:53;;;;;;;2.10;1.40;;;5.20;99.90;;;;;;5011299;28;20218;-84
2021/03/23 02:16:20;;;;;;;3.27;2.03;;;5.30;99.90;;;;;;5011343;28;20282;-84
2021/03/23 02:18:45;;;;;;;1.83;1.67;;;5.20;99.90;;;;;;5011454;28;20183;-85
2021/03/23 02:21:14;;;;;;;2.03;1.50;;;5.10;99.90;;;;;;5011091;28;20732;-84
2021/03/23 02:23:43;;;;;;;2.57;1.63;;;5.10;99.90;;;;;;5028838;28;20240;-84
2021/03/23 02:26:16;;;;;;;2.20;1.13;;;5.10;99.90;;;;;;5010630;28;20205;-84
2021/03/23 02:28:52;;;;;;;2.70;2.10;;;5.00;99.90;;;;;;5028398;28;20240;-84
2021/03/23 02:31:27;;;;;;;1.70;1.57;;;5.00;99.90;;;;;;5011170;28;20178;-84
2021/03/23 02:33:52;;;;;;;1.33;1.10;;;4.90;99.90;;;;;;5010963;28;20719;-84
2021/03/23 02:36:19;;;;;;;2.27;1.43;;;4.90;99.90;;;;;;5010975;28;20238;-84
2021/03/23 02:38:44;;;;;;;2.67;1.30;;;4.90;99.90;;;;;;5009727;28;20649;-84
2021/03/23 02:41:10;;;;;;;1.60;1.20;;;4.90;99.90;;;;;;5010392;28;20174;-84
2021/03/23 02:43:36;;;;;;;1.10;1.00;;;4.90;99.90;;;;;;5028592;28;20206;-84
2021/03/23 02:46:04;;;;;;;1.73;1.43;;;4.90;99.90;;;;;;5010669;28;20195;-85
2021/03/23 02:48:30;;;;;;;1.30;1.03;;;4.90;99.90;;;;;;5010013;28;20562;-83
2021/03/23 02:50:56;;;;;;;3.13;1.50;;;4.90;99.90;;;;;;5010109;28;20182;-84
2021/03/23 02:53:21;;;;;;;1.93;1.53;;;4.90;99.90;;;;;;5010125;28;20202;-83
2021/03/23 02:55:47;;;;;;;3.47;1.70;;;5.00;99.90;;;;;;5027055;28;20206;-84
2021/03/23 02:58:14;;;;;;;2.43;1.77;;;4.90;99.90;;;;;;5009215;28;20190;-84
2021/03/23 03:00:40;;;;;;;2.30;1.67;;;4.90;99.90;;;;;;5009158;28;20179;-84
2021/03/23 03:03:06;;;;;;;2.27;1.57;;;4.80;99.90;;;;;;5026946;28;20217;-84
2021/03/23 03:05:32;;;;;;;1.90;1.67;;;4.80;99.90;;;;;;5008780;28;21046;-84
2021/03/23 03:07:58;;;;;;;1.90;1.60;;;4.80;99.90;;;;;;5008904;28;20241;-85
2021/03/23 03:10:24;;;;;;;1.90;1.70;;;4.80;99.90;;;;;;5009087;28;20191;-84
2021/03/23 03:12:50;;;;;;;1.50;1.40;;;4.80;99.90;;;;;;5010110;28;20682;-84
2021/03/23 03:15:16;;;;;;;2.57;1.27;;;4.90;99.90;;;;;;5009925;28;20282;-84
2021/03/23 03:17:41;;;;;;;1.73;1.20;;;4.90;99.90;;;;;;5027573;28;20178;-84
2021/03/23 03:20:09;;;;;;;1.80;1.57;;;4.90;99.90;;;;;;5010125;28;20343;-84
2021/03/23 03:22:35;;;;;;;1.47;0.97;;;4.90;99.90;;;;;;5008742;28;20672;-83
2021/03/23 03:25:00;;;;;;;1.33;1.00;;;4.90;99.90;;;;;;5009887;28;20232;-84
2021/03/23 03:27:26;;;;;;;1.70;1.53;;;4.80;99.90;;;;;;5009105;28;20191;-87
2021/03/23 03:29:52;;;;;;;0.87;0.83;;;4.80;99.90;;;;;;5008984;28;20187;-84
2021/03/23 03:32:18;;;;;;;1.87;1.40;;;4.70;99.90;;;;;;5008858;28;20843;-84
2021/03/23 03:34:43;;;;;;;1.37;1.07;;;4.70;99.90;;;;;;5009665;28;20217;-85
2021/03/23 03:37:09;;;;;;;1.87;1.43;;;4.70;99.90;;;;;;5009512;28;20187;-85
2021/03/23 03:39:34;;;;;;;1.50;1.40;;;4.70;99.90;;;;;;5009421;28;20229;-84
2021/03/23 03:42:00;;;;;;;1.47;1.33;;;4.70;99.90;;;;;;5009789;28;20190;-84
2021/03/23 03:44:27;;;;;;;2.33;1.87;;;4.70;99.90;;;;;;5009020;28;20253;-85
2021/03/23 03:46:52;;;;;;;15.10;1.70;;;4.70;99.90;;;;;;5027029;28;20286;-85
2021/03/23 03:49:18;;;;;;;1.47;0.90;;;4.70;99.90;;;;;;5008423;28;20297;-85
2021/03/23 03:51:44;;;;;;;1.80;1.30;;;4.70;99.90;;;;;;5008977;28;20298;-85
2021/03/23 03:54:09;;;;;;;1.63;1.30;;;4.70;99.90;;;;;;5026243;28;20620;-85
2021/03/23 03:56:37;;;;;;;1.33;1.17;;;4.70;99.90;;;;;;5008927;28;20253;-86
2021/03/23 03:59:02;;;;;;;2.87;1.37;;;4.60;99.90;;;;;;5008640;28;20198;-86
2021/03/23 04:01:28;;;;;;;1.80;1.40;;;4.70;99.90;;;;;;5008099;28;20214;-86
2021/03/23 04:03:54;;;;;;;2.63;1.43;;;4.70;99.90;;;;;;5008458;28;20185;-86
2021/03/23 04:06:20;;;;;;;1.37;1.27;;;4.60;99.90;;;;;;5008109;28;20264;-85
2021/03/23 04:08:46;;;;;;;2.13;1.40;;;4.70;99.90;;;;;;5008489;28;20643;-84
2021/03/23 04:11:12;;;;;;;1.77;1.07;;;4.70;99.90;;;;;;5025746;28;20266;-85
2021/03/23 04:13:37;;;;;;;1.87;1.40;;;4.70;99.90;;;;;;5008011;28;20258;-85
2021/03/23 04:16:04;;;;;;;2.27;1.60;;;4.70;99.90;;;;;;5007798;28;20198;-85
2021/03/23 04:18:29;;;;;;;2.53;1.23;;;4.60;99.90;;;;;;5008210;28;20237;-86
2021/03/23 04:20:59;;;;;;;1.47;1.33;;;4.60;99.90;;;;;;5008079;28;20179;-86
2021/03/23 04:23:35;;;;;;;1.43;1.33;;;4.60;99.90;;;;;;5008485;28;20224;-85
2021/03/23 04:26:01;;;;;;;1.47;1.20;;;4.60;99.90;;;;;;5007843;28;20766;-85
2021/03/23 04:28:27;;;;;;;2.33;1.80;;;4.60;99.90;;;;;;5007845;28;20325;-84
2021/03/23 04:30:55;;;;;;;2.37;1.90;;;4.60;99.90;;;;;;5007412;28;20193;-84
2021/03/23 04:33:25;;;;;;;2.37;1.50;;;4.60;99.90;;;;;;5023986;28;20217;-85
2021/03/23 04:35:54;;;;;;;1.77;1.40;;;4.60;99.90;;;;;;5006675;28;20210;-86
2021/03/23 04:38:29;;;;;;;3.53;1.30;;;4.50;99.90;;;;;;5006720;28;20190;-85
2021/03/23 04:40:57;;;;;;;2.00;1.83;;;4.50;99.90;;;;;;5007180;28;20171;-85
2021/03/23 04:43:25;;;;;;;2.87;1.67;;;4.50;99.90;;;;;;5024015;28;20202;-84
2021/03/23 04:45:51;;;;;;;1.80;1.47;;;4.50;99.90;;;;;;5024544;28;20229;-83
2021/03/23 04:48:17;;;;;;;1.97;1.70;;;4.50;99.90;;;;;;5007160;28;20657;-85
2021/03/23 04:50:42;;;;;;;2.00;1.47;;;4.50;99.90;;;;;;5006798;28;20191;-84
2021/03/23 04:53:18;;;;;;;2.37;1.90;;;4.40;99.90;;;;;;5007534;28;20211;-85
2021/03/23 04:55:44;;;;;;;2.00;1.60;;;4.40;99.90;;;;;;5024447;28;20206;-85
2021/03/23 04:58:10;;;;;;;3.97;2.93;;;4.40;99.90;;;;;;5004746;28;20194;-85
2021/03/23 05:00:35;;;;;;;3.53;2.40;;;4.40;99.90;;;;;;5004246;28;20206;-85
2021/03/23 05:03:01;;;;;;;3.13;2.50;;;4.50;99.90;;;;;;5003406;28;20197;-84
2021/03/23 05:05:28;;;;;;;5.53;2.13;;;4.50;99.90;;;;;;5007072;28;20203;-85
2021/03/23 05:07:53;;;;;;;3.27;2.20;;;4.40;99.90;;;;;;5006207;28;20198;-85
2021/03/23 05:10:19;;;;;;;3.63;2.53;;;4.50;99.90;;;;;;5006581;28;20366;-85
2021/03/23 05:12:45;;;;;;;4.80;2.83;;;4.50;99.90;;;;;;5006976;28;20206;-85
2021/03/23 05:15:11;;;;;;;5.57;2.53;;;4.40;99.90;;;;;;5024867;28;20210;-85
2021/03/23 05:17:37;;;;;;;3.27;2.23;;;4.40;99.90;;;;;;5007348;28;20183;-85
2021/03/23 05:20:05;;;;;;;2.93;2.30;;;4.40;99.90;;;;;;5024513;28;20185;-84
2021/03/23 05:22:31;;;;;;;4.53;2.87;;;4.40;99.90;;;;;;5006883;28;20307;-83
2021/03/23 05:24:57;;;;;;;3.70;1.97;;;4.40;99.90;;;;;;5024337;28;20309;-84
2021/03/23 05:27:22;;;;;;;4.17;2.97;;;4.40;99.90;;;;;;5007403;28;20205;-86
2021/03/23 05:29:48;;;;;;;3.83;2.73;;;4.40;99.90;;;;;;5024893;28;20178;-85
2021/03/23 05:32:13;;;;;;;4.10;2.53;;;4.50;99.90;;;;;;5024517;28;20229;-83
2021/03/23 05:34:39;;;;;;;3.10;2.37;;;4.50;99.90;;;;;;5006895;28;20210;-85
2021/03/23 05:37:05;;;;;;;2.80;1.90;;;4.50;99.90;;;;;;5006281;28;20297;-85
2021/03/23 05:39:30;;;;;;;2.33;1.87;;;4.60;99.90;;;;;;5006563;28;20183;-86
2021/03/23 05:42:19;;;;;;;3.73;1.90;;;4.60;99.90;;;;;;5005750;28;20360;-85
2021/03/23 05:45:02;;;;;;;1.67;1.30;;;4.60;99.90;;;;;;5022000;28;20237;-85
2021/03/23 05:47:34;;;;;;;2.17;1.70;;;4.60;99.90;;;;;;5006989;28;20191;-85
2021/03/23 05:50:30;;;;;;;1.67;1.40;;;4.60;99.90;;;;;;5007134;28;20696;-85
2021/03/23 05:53:12;;;;;;;2.10;1.57;;;4.50;99.90;;;;;;5023255;28;20228;-85
2021/03/23 05:55:42;;;;;;;3.33;2.10;;;4.50;99.90;;;;;;5006490;28;20210;-85
2021/03/23 05:58:25;;;;;;;1.83;1.17;;;4.50;99.90;;;;;;5006131;28;20206;-85
2021/03/23 06:01:15;;;;;;;1.27;1.10;;;4.60;99.90;;;;;;5006401;28;20340;-85
2021/03/23 06:04:08;;;;;;;2.20;2.00;;;4.70;99.90;;;;;;5006376;28;20190;-85
2021/03/23 06:06:43;;;;;;;3.93;1.77;;;4.70;99.90;;;;;;5007077;28;20248;-85
2021/03/23 06:09:15;;;;;;;1.77;1.50;;;4.70;99.90;;;;;;5006270;28;20182;-85
2021/03/23 06:11:51;;;;;;;1.90;1.60;;;4.60;99.90;;;;;;5007055;28;20190;-85
2021/03/23 06:14:38;;;;;;;1.30;1.03;;;4.70;99.90;;;;;;5009541;28;20540;-85
2021/03/23 06:17:21;;;;;;;1.77;1.00;;;4.70;99.90;;;;;;5026771;28;20183;-84
2021/03/23 06:20:16;;;;;;;3.67;2.20;;;4.70;99.90;;;;;;5009951;28;20212;-84
2021/03/23 06:23:19;;;;;;;1.10;0.87;;;4.70;99.90;;;;;;4998352;28;20574;-85
2021/03/23 06:25:55;;;;;;;1.67;1.57;;;4.70;99.90;;;;;;5008542;28;20582;-84
2021/03/23 06:28:58;;;;;;;1.97;1.70;;;4.80;99.90;;;;;;5027450;28;20741;-85
2021/03/23 06:31:35;;;;;;;1.60;1.43;;;4.70;99.90;;;;;;5026693;28;20191;-85
2021/03/23 06:34:01;;;;;;;1.37;1.10;;;4.70;99.90;;;;;;5009759;28;20206;-85
2021/03/23 06:36:30;;;;;;;2.10;1.77;;;4.70;99.90;;;;;;5010436;28;20262;-85
2021/03/23 06:38:57;;;;;;;3.23;1.50;;;4.70;99.90;;;;;;5009663;28;20180;-84
2021/03/23 06:41:25;;;;;;;2.07;1.63;;;4.70;99.90;;;;;;5027316;28;20630;-85
2021/03/23 06:44:16;;;;;;;2.20;1.93;;;4.80;99.90;;;;;;5008784;28;20206;-85
2021/03/23 06:46:48;;;;;;;2.10;1.40;;;4.80;99.90;;;;;;4992258;28;20614;-84
2021/03/23 06:49:14;;;;;;;2.60;1.67;;;4.80;99.90;;;;;;5026160;28;20582;-85
2021/03/23 06:52:00;;;;;;;2.23;1.67;;;4.80;99.90;;;;;;5008732;28;20191;-85
2021/03/23 06:54:31;;;;;;;2.73;1.83;;;4.70;99.90;;;;;;5026682;28;21023;-85
2021/03/23 06:57:06;;;;;;;2.00;1.83;;;4.80;99.90;;;;;;5025825;28;20182;-86
2021/03/23 06:59:45;;;;;;;2.97;2.33;;;4.80;99.90;;;;;;5008618;28;20206;-85
2021/03/23 07:02:43;;;;;;;2.10;1.60;;;4.80;99.90;;;;;;5009145;28;20186;-85
2021/03/23 07:05:27;;;;;;;2.87;1.93;;;4.90;99.90;;;;;;5008784;28;20221;-86
2021/03/23 07:07:58;;;;;;;2.83;2.03;;;4.80;99.90;;;;;;5008747;28;20189;-86
2021/03/23 07:10:31;;;;;;;2.50;2.30;;;4.80;99.90;;;;;;5007835;28;20240;-85
2021/03/23 07:12:58;;;;;;;4.60;2.50;;;4.90;99.90;;;;;;5008790;28;20218;-85
2021/03/23 07:15:35;;;;;;;3.40;1.67;;;4.90;99.90;;;;;;5025466;28;20199;-85
2021/03/23 07:18:10;;;;;;;2.47;1.97;;;4.80;99.90;;;;;;5008451;28;20797;-84
2021/03/23 07:20:36;;;;;;;2.53;1.80;;;4.80;99.90;;;;;;5007639;28;20171;-86
2021/03/23 07:23:21;;;;;;;1.60;1.50;;;4.80;99.90;;;;;;5009039;28;20178;-85
2021/03/23 07:25:47;;;;;;;1.70;1.60;;;4.90;99.90;;;;;;5008579;28;20935;-85
2021/03/23 07:28:22;;;;;;;3.33;1.60;;;5.00;99.90;;;;;;5007523;28;20194;-85
2021/03/23 07:31:15;;;;;;;2.13;1.43;;;5.00;99.90;;;;;;5007131;28;20800;-85
2021/03/23 07:33:47;;;;;;;2.93;1.90;;;5.10;99.90;;;;;;5006749;28;20221;-84
2021/03/23 07:36:42;;;;;;;2.47;1.90;;;5.30;99.90;;;;;;5006565;28;20199;-85
2021/03/23 07:39:27;;;;;;;1.97;1.70;;;5.30;99.90;;;;;;5002477;28;20359;-84
2021/03/23 07:42:04;;;;;;;3.43;2.57;;;5.40;99.90;;;;;;5006734;28;20174;-85
2021/03/23 07:47:01;;;;;;;3.40;1.90;;;5.60;99.90;;;;;;5001330;28;20212;-83
2021/03/23 07:49:45;;;;;;;3.27;2.00;;;5.60;99.90;;;;;;4987082;28;20721;-84
2021/03/23 07:52:31;;;;;;;2.77;1.97;;;5.70;99.90;;;;;;5005031;28;20172;-84
2021/03/23 07:55:03;;;;;;;2.73;2.10;;;5.80;99.90;;;;;;4993982;28;20785;-83
2021/03/23 07:57:37;;;;;;;2.70;2.10;;;6.00;99.90;;;;;;5023944;28;20179;-84
2021/03/23 08:00:08;;;;;;;1.90;1.70;;;5.90;99.90;;;;;;5006646;28;20178;-83
2021/03/23 08:02:59;;;;;;;3.87;2.63;;;5.90;99.90;;;;;;5015781;28;20182;-83
2021/03/23 08:05:55;;;;;;;2.80;1.97;;;6.00;99.90;;;;;;5006705;28;20309;-82
2021/03/23 08:08:48;;;;;;;3.00;2.20;;;6.00;99.90;;;;;;4982399;28;20187;-84
2021/03/23 08:11:14;;;;;;;3.03;2.30;;;6.00;99.90;;;;;;5024093;28;20171;-83
2021/03/23 08:14:13;;;;;;;2.90;1.73;;;6.00;99.90;;;;;;5024715;28;20212;-83
2021/03/23 08:17:06;;;;;;;3.07;1.80;;;6.10;99.90;;;;;;5006484;28;20185;-83
2021/03/23 08:20:06;;;;;;;2.13;1.67;;;6.10;99.90;;;;;;5006033;28;20190;-86
2021/03/23 08:22:43;;;;;;;3.67;1.90;;;6.20;99.90;;;;;;5006499;28;20229;-85
2021/03/23 08:25:28;;;;;;;3.00;1.83;;;6.30;99.90;;;;;;5006553;28;20222;-85
2021/03/23 08:28:00;;;;;;;2.97;2.10;;;6.30;99.90;;;;;;5006352;28;20722;-85
2021/03/23 08:30:47;;;;;;;2.67;2.10;;;6.40;99.90;;;;;;5006336;28;20292;-83
2021/03/23 08:33:37;;;;;;;4.17;2.20;;;6.30;99.90;;;;;;5006350;28;20203;-84
2021/03/23 08:36:44;;;;;;;4.07;2.50;;;6.30;99.90;;;;;;5005856;28;20321;-84
2021/03/23 08:39:17;;;;;;;3.90;1.80;;;6.30;99.90;;;;;;5006222;28;20237;-85
2021/03/23 08:42:04;;;;;;;3.60;2.27;;;6.40;99.90;;;;;;5006177;28;20271;-86
2021/03/23 08:44:48;;;;;;;3.07;2.13;;;6.40;99.90;;;;;;5008535;28;20217;-84
2021/03/23 08:47:25;;;;;;;2.03;1.47;;;6.50;99.90;;;;;;5006760;28;20208;-84
2021/03/23 08:49:53;;;;;;;1.30;1.20;;;6.70;99.90;;;;;;5006388;28;20526;-86
2021/03/23 08:52:31;;;;;;;1.73;1.30;;;6.70;99.90;;;;;;5007015;28;20289;-84
2021/03/23 08:54:58;;;;;;;1.00;0.80;;;6.90;99.90;;;;;;5025338;28;20198;-84
2021/03/23 08:57:44;;;;;;;1.73;1.40;;;7.00;99.90;;;;;;5007250;28;20178;-84
2021/03/23 09:00:36;;;;;;;1.20;0.90;;;7.10;99.90;;;;;;5007002;28;20183;-84
2021/03/23 09:03:12;;;;;;;1.47;1.13;;;7.10;99.90;;;;;;5008077;28;20531;-84
2021/03/23 09:05:50;;;;;;;2.07;1.77;;;7.10;99.90;;;;;;5007538;28;20202;-79
2021/03/23 09:08:31;;;;;;;1.90;1.37;;;7.20;99.90;;;;;;5024461;28;20213;-84
2021/03/23 09:11:03;;;;;;;1.70;1.40;;;7.10;99.90;;;;;;5007476;28;20601;-85
2021/03/23 09:13:34;;;;;;;1.60;1.33;;;7.10;99.90;;;;;;5008652;28;20206;-84
2021/03/23 09:16:24;;;;;;;3.03;1.40;;;7.10;99.90;;;;;;5007606;28;20202;-85
2021/03/23 09:19:04;;;;;;;1.40;1.30;;;7.10;99.90;;;;;;5005259;28;20193;-85
2021/03/23 09:21:52;;;;;;;3.33;1.13;;;7.20;99.90;;;;;;5007015;28;20217;-86
2021/03/23 09:24:29;;;;;;;1.23;1.00;;;7.20;99.90;;;;;;5007607;28;20197;-86
2021/03/23 09:26:56;;;;;;;1.43;1.10;;;7.10;99.90;;;;;;5001136;28;20669;-83
2021/03/23 09:29:34;;;;;;;1.40;1.30;;;7.20;99.90;;;;;;5002705;28;20185;-84
2021/03/23 09:32:05;;;;;;;1.60;1.10;;;7.30;99.90;;;;;;5002867;28;20230;-84
2021/03/23 09:35:02;;;;;;;1.40;1.10;;;7.50;99.90;;;;;;4999842;28;20222;-86
2021/03/23 09:37:39;;;;;;;2.37;1.40;;;7.70;99.90;;;;;;5001503;28;20328;-85
2021/03/23 09:40:38;;;;;;;3.70;1.60;;;7.70;99.90;;;;;;5001410;28;20187;-87
2021/03/23 09:43:07;;;;;;;1.60;1.30;;;7.80;99.90;;;;;;4985734;28;20286;-84
2021/03/23 09:45:36;;;;;;;2.57;1.40;;;7.80;99.90;;;;;;5001226;28;20692;-83
2021/03/23 09:48:40;;;;;;;1.80;1.27;;;7.80;99.90;;;;;;5003234;28;20282;-83
2021/03/23 09:51:24;;;;;;;1.70;1.30;;;7.90;99.90;;;;;;5005821;28;20189;-85
2021/03/23 09:53:53;;;;;;;1.37;1.27;;;8.00;99.90;;;;;;5008537;28;20202;-83
2021/03/23 09:56:25;;;;;;;2.07;1.27;;;7.90;99.90;;;;;;5029231;28;20198;-83
2021/03/23 09:59:23;;;;;;;1.57;1.23;;;7.80;99.90;;;;;;5011141;28;20795;-83
2021/03/23 10:02:14;;;;;;;1.93;1.40;;;7.70;99.90;;;;;;5009989;28;20187;-83
2021/03/23 10:04:40;;;;;;;1.53;1.20;;;7.80;99.90;;;;;;5028139;28;20241;-82
2021/03/23 10:07:11;;;;;;;2.73;1.47;;;8.00;99.90;;;;;;5011455;28;20843;-83
2021/03/23 10:09:37;;;;;;;1.50;1.40;;;8.00;99.90;;;;;;5027484;28;20695;-84
2021/03/23 10:12:05;;;;;;;2.80;2.27;;;8.00;99.90;;;;;;5010379;28;20269;-83
2021/03/23 10:14:34;;;;;;;1.47;1.37;;;8.10;99.90;;;;;;5009949;28;20214;-83
2021/03/23 10:17:21;;;;;;;2.97;2.27;;;7.90;99.90;;;;;;5010940;28;20547;-83
2021/03/23 10:19:56;;;;;;;3.00;1.80;;;7.80;99.90;;;;;;5009592;28;20205;-83
2021/03/23 10:22:36;;;;;;;2.30;1.90;;;7.90;99.90;;;;;;5009119;28;20688;-83
2021/03/23 10:25:07;;;;;;;4.37;1.80;;;7.80;99.90;;;;;;5008106;28;20249;-83
2021/03/23 10:27:36;;;;;;;2.13;1.50;;;7.90;99.90;;;;;;5007379;28;20205;-83
2021/03/23 10:30:17;;;;;;;2.23;1.90;;;8.00;99.90;;;;;;5008564;28;20183;-83
2021/03/23 10:32:48;;;;;;;3.13;2.07;;;8.00;99.90;;;;;;5008932;28;20708;-83
2021/03/23 10:35:24;;;;;;;3.50;2.13;;;8.00;99.90;;;;;;5008719;28;20253;-83
2021/03/23 10:38:33;;;;;;;2.30;1.93;;;7.90;99.90;;;;;;5008758;28;20187;-83
2021/03/23 10:41:17;;;;;;;2.83;1.93;;;8.00;99.90;;;;;;4997036;28;20187;-83
2021/03/23 10:43:45;;;;;;;3.20;2.40;;;8.10;99.90;;;;;;5008920;28;20178;-83
2021/03/23 10:46:31;;;;;;;2.80;2.20;;;8.10;99.90;;;;;;5026221;28;20250;-83
2021/03/23 10:49:19;;;;;;;7.33;2.00;;;8.10;99.90;;;;;;5008977;28;20192;-82
2021/03/23 10:51:48;;;;;;;3.27;2.20;;;8.10;99.90;;;;;;5008655;28;20246;-83
2021/03/23 10:54:14;;;;;;;2.97;1.90;;;8.10;99.90;;;;;;5013682;28;20306;-83
2021/03/23 10:56:43;;;;;;;3.47;2.40;;;8.20;99.90;;;;;;5026359;28;20265;-85
2021/03/23 10:59:23;;;;;;;2.87;2.07;;;8.10;99.90;;;;;;5025785;28;20571;-83
2021/03/23 11:01:56;;;;;;;3.50;2.20;;;8.20;99.90;;;;;;5008735;28;20290;-83
2021/03/23 11:04:22;;;;;;;4.20;1.87;;;8.40;99.90;;;;;;5009544;28;20214;-85
2021/03/23 11:06:48;;;;;;;3.30;2.20;;;8.50;99.90;;;;;;5009262;28;20332;-84
2021/03/23 11:09:18;;;;;;;2.83;1.90;;;8.70;99.90;;;;;;5008859;28;20191;-84
2021/03/23 11:11:44;;;;;;;3.77;2.20;;;8.70;99.90;;;;;;5007684;28;20191;-83
2021/03/23 11:14:11;;;;;;;1.47;1.17;;;8.80;99.90;;;;;;5025906;28;20206;-83
2021/03/23 11:16:40;;;;;;;3.60;2.53;;;8.90;99.90;;;;;;5007748;28;20567;-86
2021/03/23 11:19:27;;;;;;;2.27;1.77;;;8.90;99.90;;;;;;5027066;28;20171;-84
2021/03/23 11:21:58;;;;;;;1.87;1.20;;;9.00;99.90;;;;;;5009223;28;20695;-83
2021/03/23 11:24:23;;;;;;;2.40;1.50;;;9.10;99.90;;;;;;5008638;28;20210;-84
2021/03/23 11:26:49;;;;;;;1.97;1.20;;;9.00;99.90;;;;;;5008430;28;20187;-83
2021/03/23 11:29:16;;;;;;;2.13;1.40;;;9.00;99.90;;;;;;5008455;28;20183;-83
2021/03/23 11:31:42;;;;;;;2.73;1.73;;;9.00;99.90;;;;;;5024750;28;20188;-83
2021/03/23 11:34:08;;;;;;;2.10;1.80;;;9.10;99.90;;;;;;5007540;28;20221;-83
2021/03/23 11:36:34;;;;;;;2.47;1.63;;;9.20;99.90;;;;;;5005704;28;20284;-83
2021/03/23 11:39:00;;;;;;;3.33;2.03;;;9.20;99.90;;;;;;5006721;28;20203;-83
2021/03/23 11:41:34;;;;;;;2.13;1.40;;;9.20;99.90;;;;;;5006718;28;20488;-84
2021/03/23 11:44:23;;;;;;;1.50;1.40;;;9.30;99.90;;;;;;5006047;28;20194;-85
2021/03/23 11:47:09;;;;;;;2.50;1.70;;;9.40;99.90;;;;;;5015629;28;20277;-84
2021/03/23 11:49:40;;;;;;;2.73;2.17;;;9.30;99.90;;;;;;5025563;28;20190;-84
2021/03/23 11:52:07;;;;;;;4.17;1.73;;;9.30;99.90;;;;;;5004965;28;20191;-83
2021/03/23 11:54:32;;;;;;;4.63;2.43;;;9.30;99.90;;;;;;5023137;28;20573;-83
2021/03/23 11:56:58;;;;;;;3.73;2.33;;;9.40;99.90;;;;;;5007500;28;20178;-83
2021/03/23 11:59:24;;;;;;;4.40;2.07;;;9.30;99.90;;;;;;5007587;28;20229;-82
2021/03/23 12:01:50;;;;;;;3.67;2.23;;;9.40;99.90;;;;;;5007112;28;20175;-82
2021/03/23 12:04:16;;;;;;;5.30;2.07;;;9.40;99.90;;;;;;5007610;28;20214;-83
2021/03/23 12:06:44;;;;;;;2.17;1.87;;;9.40;99.90;;;;;;5006864;28;20262;-82
2021/03/23 12:09:22;;;;;;;3.87;2.60;;;9.30;99.90;;;;;;5025048;28;20187;-83
2021/03/23 12:12:14;;;;;;;3.30;2.37;;;9.40;99.90;;;;;;5023848;28;20214;-84
2021/03/23 12:15:11;;;;;;;4.80;2.73;;;9.60;99.90;;;;;;5007583;28;20223;-84
2021/03/23 12:17:39;;;;;;;2.63;1.83;;;9.50;99.90;;;;;;5007033;28;20214;-83
2021/03/23 12:20:16;;;;;;;2.73;2.20;;;9.40;99.90;;;;;;5006570;28;20178;-83
2021/03/23 12:22:42;;;;;;;5.10;2.80;;;9.20;99.90;;;;;;5005885;28;20190;-83
2021/03/23 12:25:09;;;;;;;2.70;2.00;;;9.20;99.90;;;;;;5023824;28;20337;-82
2021/03/23 12:27:35;;;;;;;3.37;2.60;;;9.20;99.90;;;;;;5006381;28;20380;-83
2021/03/23 12:30:01;;;;;;;2.70;1.87;;;9.30;99.90;;;;;;5006075;28;20626;-78
2021/03/23 12:32:28;;;;;;;4.23;2.37;;;9.30;99.90;;;;;;5024009;28;20225;-85
2021/03/23 12:34:54;;;;;;;3.97;2.67;;;9.20;99.90;;;;;;5006521;28;20271;-84
2021/03/23 12:37:21;;;;;;;6.57;2.97;;;9.30;99.90;;;;;;5003778;28;20183;-84
2021/03/23 12:39:47;;;;;;;4.00;2.40;;;9.40;99.90;;;;;;5002521;28;20186;-84
2021/03/23 12:44:49;;;;;;;6.00;2.85;;;9.40;99.90;;;;;;6063242;23;20316;-81
2021/03/23 12:47:15;;;;;;;2.47;2.20;;;9.60;99.90;;;;;;5004287;28;20801;-81
2021/03/23 12:49:41;;;;;;;2.67;2.27;;;9.50;99.90;;;;;;5017817;28;20191;-78
2021/03/23 12:52:09;;;;;;;3.67;2.00;;;9.50;99.90;;;;;;5016591;28;20179;-78
2021/03/23 12:54:38;;;;;;;3.10;2.43;;;9.50;99.90;;;;;;5017305;28;20247;-78
2021/03/23 12:57:19;;;;;;;3.33;2.10;;;9.50;99.90;;;;;;5019145;28;20206;-75
2021/03/23 12:59:46;;;;;;;4.20;2.60;;;9.50;99.90;;;;;;5013218;28;20189;-77
2021/03/23 13:02:15;;;;;;;3.43;2.57;;;9.40;99.90;;;;;;5019383;28;20260;-75
2021/03/23 13:04:41;;;;;;;4.77;2.53;;;9.30;99.90;;;;;;5019236;28;20186;-78
2021/03/23 13:07:21;;;;;;;4.30;2.90;;;9.40;99.90;;;;;;5017554;28;20288;-76
2021/03/23 13:09:48;;;;;;;3.97;3.07;;;9.50;99.90;;;;;;5014894;28;20182;-75
2021/03/23 13:12:13;;;;;;;3.43;2.57;;;9.40;99.90;;;;;;5018882;28;20179;-75
2021/03/23 13:14:40;;;;;;;3.77;2.83;;;9.40;99.90;;;;;;5016699;28;20276;-76
2021/03/23 13:17:08;;;;;;;3.27;2.20;;;9.40;99.90;;;;;;5018978;28;20238;-75
2021/03/23 13:19:34;;;;;;;4.53;2.53;;;9.50;99.90;;;;;;5019061;28;20686;-79
2021/03/23 13:22:02;;;;;;;3.37;2.30;;;9.60;99.90;;;;;;5016292;28;20193;-76
2021/03/23 13:24:36;;;;;;;3.43;2.37;;;9.60;99.90;;;;;;5020709;28;20198;-77
2021/03/23 13:27:22;;;;;;;6.43;3.13;;;9.70;99.90;;;;;;5022497;28;20223;-78
2021/03/23 13:29:49;;;;;;;3.93;2.10;;;9.80;99.90;;;;;;5020811;28;20194;-79